^^
Station Historical Data
Daily Summary for January 2, 2017 Units:  Metric    English   Both
« Previous Day
Next Day »
Daily Weekly Monthly Yearly Custom
  High: Low: Average:
Temperature: -17.8 °C -20.6 °C -19.9 °C
Dew Point: -17.8 °C -21.2 °C -20.5 °C
Humidity: Humidity% 90% 92%
Wind Speed: 0km/h 0km/h 1.4km/h
Wind Gust: 0km/h - -
Wind- - WSW
Pressure: 0 hPa 33866.8 hPa -
Precipitation: 45.72 mm    
Historical Graphs
 
 
Tabular Data for January 2, 2017
Time Temperature Dew Point Pressure Wind Wind Speed Wind Gust Humidity Rainfall Rate (Hourly) solar Conditions
-17.8 °C -17.8 °C 0 hPa Calm     Humidity% 0 mm SoftwareType W/m2 Conditions
00:02 -19.8 °C -20.4 °C 33866.8 hPa NNW 3.9 km/h 9 km/h 92% 0 mm WeatherDisplay:10.37 W/m2 FEW
00:07 -19.9 °C -19.9 °C 33880.3 hPa NW 1.8 km/h 9 km/h 99% 0 mm WeatherDisplay:10.37 W/m2 FEW
00:12 -19.9 °C -20.5 °C 33880.3 hPa NNW 9.7 km/h 20.9 km/h 92% 0 mm WeatherDisplay:10.37 W/m2 FEW
00:17 -19.9 °C -20.6 °C 33880.3 hPa NNW 2.3 km/h 6 km/h 92% 0 mm WeatherDisplay:10.37 W/m2 FEW
00:22 -19.9 °C -20.6 °C 33880.3 hPa NNW 3.1 km/h 9 km/h 92% 0 mm WeatherDisplay:10.37 W/m2 FEW
00:27 -20 °C -20.6 °C 33880.3 hPa Calm     92% 0 mm WeatherDisplay:10.37 W/m2 FEW
00:32 -20.1 °C -20.7 °C 33880.3 hPa NNW 7.7 km/h 9 km/h 92% 0 mm WeatherDisplay:10.37 W/m2 FEW
00:37 -20.1 °C -20.7 °C 33880.3 hPa NNW 1.8 km/h 6 km/h 92% 0 mm WeatherDisplay:10.37 W/m2 FEW
00:42 -20.1 °C -20.7 °C 33880.3 hPa NNW 2.1 km/h 7.7 km/h 92% 0 mm WeatherDisplay:10.37 W/m2 FEW
00:47 -20.1 °C -20.7 °C 33880.3 hPa NW 9 km/h 9 km/h 92% 0 mm WeatherDisplay:10.37 W/m2 FEW
00:52 -20.1 °C -20.7 °C 33880.3 hPa NNW 8 km/h 20.9 km/h 92% 0 mm WeatherDisplay:10.37 W/m2 FEW
00:57 -20.1 °C -20.7 °C 33880.3 hPa NNW 7.6 km/h 9 km/h 92% 0 mm WeatherDisplay:10.37 W/m2 FEW
01:02 -20.1 °C -20.7 °C 33880.3 hPa North 6.8 km/h 9 km/h 92% 0 mm WeatherDisplay:10.37 W/m2 FEW
01:07 -20.2 °C -20.8 °C 33880.3 hPa NNW 7.2 km/h 11.9 km/h 92% 0 mm WeatherDisplay:10.37 W/m2 FEW
01:12 -20.2 °C -20.8 °C 33880.3 hPa NW 4.3 km/h 9 km/h 92% 0 mm WeatherDisplay:10.37 W/m2 FEW
01:17 -20.2 °C -20.8 °C 33880.3 hPa Calm     92% 0 mm WeatherDisplay:10.37 W/m2 FEW
01:22 -20.2 °C -20.8 °C 33880.3 hPa Calm     92% 0 mm WeatherDisplay:10.37 W/m2 FEW
01:27 -20.2 °C -20.8 °C 33880.3 hPa Calm     92% 0 mm WeatherDisplay:10.37 W/m2 FEW
01:32 -20.2 °C -20.8 °C 33880.3 hPa NW 5.1 km/h 9 km/h 92% 0 mm WeatherDisplay:10.37 W/m2 FEW
01:37 -20.2 °C -20.8 °C 33880.3 hPa NNW 8.5 km/h 20.9 km/h 92% 0 mm WeatherDisplay:10.37 W/m2 FEW
01:42 -20.2 °C -20.8 °C 33880.3 hPa NNW 6.4 km/h 9 km/h 92% 0 mm WeatherDisplay:10.37 W/m2 FEW
01:47 -20.2 °C -20.8 °C 33880.3 hPa NNW 6.9 km/h 11.9 km/h 92% 0 mm WeatherDisplay:10.37 W/m2 FEW
01:52 -20.2 °C -20.8 °C 33880.3 hPa NNW 12.4 km/h 20.9 km/h 92% 0 mm WeatherDisplay:10.37 W/m2 FEW
01:57 -20.2 °C -20.8 °C 33880.3 hPa NNW 4.2 km/h 9 km/h 92% 0 mm WeatherDisplay:10.37 W/m2 FEW
02:02 -20.2 °C -20.8 °C 33880.3 hPa North 6.8 km/h 9 km/h 92% 0 mm WeatherDisplay:10.37 W/m2 FEW
02:07 -20.2 °C -20.8 °C 33880.3 hPa NNW 2.1 km/h 9 km/h 92% 0 mm WeatherDisplay:10.37 W/m2 FEW
02:12 -20.2 °C -20.8 °C 33890.5 hPa Calm     92% 0 mm WeatherDisplay:10.37 W/m2 FEW
02:17 -20.2 °C -20.8 °C 33890.5 hPa NNW 6.4 km/h 9 km/h 92% 0 mm WeatherDisplay:10.37 W/m2 FEW
02:22 -20.2 °C -20.8 °C 33880.3 hPa NW 0.5 km/h 6 km/h 92% 0 mm WeatherDisplay:10.37 W/m2 FEW
02:27 -20.2 °C -20.8 °C 33880.3 hPa NW 6.3 km/h 11.9 km/h 92% 0 mm WeatherDisplay:10.37 W/m2 FEW
02:32 -20.2 °C -20.8 °C 33880.3 hPa NW 3.7 km/h 10.3 km/h 92% 0 mm WeatherDisplay:10.37 W/m2 FEW
02:37 -20.2 °C -20.8 °C 33890.5 hPa Calm     92% 0 mm WeatherDisplay:10.37 W/m2 FEW
02:42 -20.2 °C -20.8 °C 33880.3 hPa NW 6 km/h 9 km/h 92% 0 mm WeatherDisplay:10.37 W/m2 FEW
02:47 -20.2 °C -20.8 °C 33890.5 hPa NNW 7.2 km/h 11.9 km/h 92% 0 mm WeatherDisplay:10.37 W/m2 FEW
02:52 -20.2 °C -20.8 °C 33890.5 hPa Calm     92% 0 mm WeatherDisplay:10.37 W/m2 FEW
02:57 -20.2 °C -20.8 °C 33890.5 hPa NNW 3.1 km/h 6 km/h 92% 0 mm WeatherDisplay:10.37 W/m2 FEW
03:02 -20.2 °C -20.8 °C 33890.5 hPa NNW 6 km/h 9 km/h 92% 0 mm WeatherDisplay:10.37 W/m2 FEW
03:07 -20.2 °C -20.8 °C 33890.5 hPa NNW 3.1 km/h 9 km/h 92% 0 mm WeatherDisplay:10.37 W/m2 FEW
03:12 -20.2 °C -20.8 °C 33890.5 hPa NNW 6.4 km/h 9 km/h 92% 0 mm WeatherDisplay:10.37 W/m2 FEW
03:17 -20.2 °C -20.8 °C 33890.5 hPa NNW 0.8 km/h 7.7 km/h 92% 0 mm WeatherDisplay:10.37 W/m2 FEW
03:22 -20.2 °C -20.8 °C 33880.3 hPa Calm     92% 0 mm WeatherDisplay:10.37 W/m2 FEW
03:27 -20.2 °C -20.8 °C 33880.3 hPa Calm     92% 0 mm WeatherDisplay:10.37 W/m2 FEW
03:32 -20.2 °C -20.8 °C 33880.3 hPa NNW 1.8 km/h 6 km/h 92% 0 mm WeatherDisplay:10.37 W/m2 FEW
03:37 -20.2 °C -20.8 °C 33890.5 hPa Calm     92% 0 mm WeatherDisplay:10.37 W/m2 FEW
03:42 -20.2 °C -20.8 °C 33890.5 hPa NNW 4.3 km/h 9 km/h 92% 0 mm WeatherDisplay:10.37 W/m2 FEW
03:47 -20.2 °C -20.9 °C 33890.5 hPa NW 4.7 km/h 9 km/h 92% 0 mm WeatherDisplay:10.37 W/m2 FEW
03:52 -20.3 °C -20.8 °C 33880.3 hPa Calm     93% 0 mm WeatherDisplay:10.37 W/m2 FEW
03:57 -20.3 °C -20.8 °C 33890.5 hPa NW 0.8 km/h 5.1 km/h 93% 0 mm WeatherDisplay:10.37 W/m2 FEW
04:02 -20.3 °C -20.8 °C 33890.5 hPa NNW 6.3 km/h 9 km/h 93% 0 mm WeatherDisplay:10.37 W/m2 FEW
04:07 -20.3 °C -20.8 °C 33890.5 hPa NNW 5.5 km/h 12.9 km/h 93% 0 mm WeatherDisplay:10.37 W/m2 FEW
04:12 -20.3 °C -20.8 °C 33890.5 hPa Calm     93% 0 mm WeatherDisplay:10.37 W/m2 FEW
04:17 -20.3 °C -20.8 °C 33890.5 hPa NW 3.1 km/h 9 km/h 93% 0 mm WeatherDisplay:10.37 W/m2 FEW
04:22 -20.3 °C -20.8 °C 33890.5 hPa NW 4.2 km/h 9 km/h 93% 0 mm WeatherDisplay:10.37 W/m2 FEW
04:27 -20.2 °C -20.8 °C 33890.5 hPa Calm     93% 0 mm WeatherDisplay:10.37 W/m2 FEW
04:32 -20.2 °C -20.9 °C 33890.5 hPa Calm     92% 0 mm WeatherDisplay:10.37 W/m2 FEW
04:37 -20.2 °C -20.8 °C 33890.5 hPa NNW 4.7 km/h 9 km/h 92% 0 mm WeatherDisplay:10.37 W/m2 FEW
04:42 -20.2 °C -20.8 °C 33890.5 hPa NNW 3.1 km/h 9 km/h 92% 0 mm WeatherDisplay:10.37 W/m2 FEW
04:47 -20.2 °C -20.8 °C 33890.5 hPa NNW 7.7 km/h 15 km/h 92% 0 mm WeatherDisplay:10.37 W/m2 FEW
04:52 -20.2 °C -20.8 °C 33890.5 hPa NNW 5 km/h 9 km/h 92% 0 mm WeatherDisplay:10.37 W/m2 FEW
04:57 -20.2 °C -20.8 °C 33890.5 hPa NNW 6 km/h 11.9 km/h 92% 0 mm WeatherDisplay:10.37 W/m2 FEW
05:02 -20.1 °C -20.7 °C 33890.5 hPa Calm   3.1 km/h 93% 0 mm WeatherDisplay:10.37 W/m2 FEW
05:07 -20.1 °C -20.7 °C 33890.5 hPa NW 9.3 km/h 15 km/h 93% 0 mm WeatherDisplay:10.37 W/m2 FEW
05:12 -20.1 °C -20.7 °C 33890.5 hPa NNW 6.3 km/h 9 km/h 93% 0 mm WeatherDisplay:10.37 W/m2 FEW
05:17 -20.1 °C -20.6 °C 33890.5 hPa Calm     93% 0 mm WeatherDisplay:10.37 W/m2 FEW
05:22 -20.1 °C -20.6 °C 33890.5 hPa NNW 3.1 km/h 10.3 km/h 93% 0 mm WeatherDisplay:10.37 W/m2 FEW
05:27 -20.1 °C -20.6 °C 33890.5 hPa NW 10.3 km/h 20.8 km/h 93% 0 mm WeatherDisplay:10.37 W/m2 FEW
05:32 -20.1 °C -20.7 °C 33890.5 hPa NNW 11.9 km/h 26.9 km/h 92% 0 mm WeatherDisplay:10.37 W/m2 FEW
05:37 -20.1 °C -20.7 °C 33890.5 hPa NNW 3.9 km/h 9 km/h 92% 0 mm WeatherDisplay:10.37 W/m2 FEW
05:42 -20.1 °C -20.7 °C 33890.5 hPa NW 3.4 km/h 10.3 km/h 92% 0 mm WeatherDisplay:10.37 W/m2 FEW
05:47 -20.1 °C -20.7 °C 33890.5 hPa Calm     92% 0 mm WeatherDisplay:10.37 W/m2 FEW
05:52 -20.1 °C -20.7 °C 33890.5 hPa Calm     92% 0 mm WeatherDisplay:10.37 W/m2 FEW
05:57 -20.1 °C -20.7 °C 33880.3 hPa NW 1.6 km/h 9 km/h 92% 0 mm WeatherDisplay:10.37 W/m2 FEW
06:02 -20.1 °C -20.7 °C 33890.5 hPa NNW 7.7 km/h 12.9 km/h 92% 0 mm WeatherDisplay:10.37 W/m2 FEW
06:07 -20.1 °C -20.7 °C 33890.5 hPa NW 5.1 km/h 9 km/h 92% 0 mm WeatherDisplay:10.37 W/m2 FEW
06:12 -20.1 °C -20.7 °C 33890.5 hPa Calm     92% 0 mm WeatherDisplay:10.37 W/m2 FEW
06:17 -20 °C -20.6 °C 33890.5 hPa NNW 5.5 km/h 10.3 km/h 92% 0 mm WeatherDisplay:10.37 W/m2 FEW
06:22 -20 °C -20.6 °C 33890.5 hPa NW 3.1 km/h 6 km/h 92% 0 mm WeatherDisplay:10.37 W/m2 FEW
06:27 -20 °C -20.6 °C 33890.5 hPa Calm     92% 0 mm WeatherDisplay:10.37 W/m2 FEW
06:29 -20 °C -20.6 °C 33890.5 hPa NW 0.3 km/h 9 km/h 92% 0 mm WeatherDisplay:10.37 W/m2 FEW
06:34 -19.9 °C -20.6 °C 33890.5 hPa Calm     92% 0 mm WeatherDisplay:10.37 W/m2 FEW
06:39 -19.9 °C -20.6 °C 33890.5 hPa Calm     92% 0 mm WeatherDisplay:10.37 W/m2 FEW
06:44 -19.9 °C -20.6 °C 33890.5 hPa Calm     92% 0 mm WeatherDisplay:10.37 W/m2 FEW
06:49 -19.9 °C -20.5 °C 33890.5 hPa Calm     92% 0 mm WeatherDisplay:10.37 W/m2 FEW
06:54 -19.9 °C -20.5 °C 33890.5 hPa Calm     92% 0 mm WeatherDisplay:10.37 W/m2 FEW
06:59 -19.9 °C -19.9 °C 33880.3 hPa Calm     99% 0 mm WeatherDisplay:10.37 W/m2 FEW
07:04 -19.9 °C -20.5 °C 33890.5 hPa NW 1 km/h 7.7 km/h 92% 0 mm WeatherDisplay:10.37 W/m2 FEW
07:09 -19.9 °C -20.5 °C 33890.5 hPa Calm     92% 0 mm WeatherDisplay:10.37 W/m2 FEW
07:14 -19.9 °C -20.5 °C 33890.5 hPa NNW 6.9 km/h 9 km/h 92% 0 mm WeatherDisplay:10.37 W/m2 FEW
07:19 -19.9 °C -20.5 °C 33890.5 hPa Calm   3.1 km/h 92% 0 mm WeatherDisplay:10.37 W/m2 FEW
07:24 -19.9 °C -20.5 °C 33890.5 hPa Calm     92% 0 mm WeatherDisplay:10.37 W/m2 FEW
07:29 -19.9 °C -20.6 °C 33880.3 hPa Calm     92% 0 mm WeatherDisplay:10.37 W/m2 FEW
07:34 -19.9 °C -20.5 °C 33880.3 hPa North 3.9 km/h 10.3 km/h 92% 0 mm WeatherDisplay:10.37 W/m2 FEW
07:39 -19.9 °C -20.5 °C 33890.5 hPa West 2.9 km/h 9 km/h 92% 0 mm WeatherDisplay:10.37 W/m2 FEW
07:44 -19.9 °C -20.5 °C 33890.5 hPa Calm     92% 0 mm WeatherDisplay:10.37 W/m2 FEW
07:49 -19.9 °C -20.5 °C 33890.5 hPa NNW 2.9 km/h 6 km/h 92% 0 mm WeatherDisplay:10.37 W/m2 FEW
07:54 -19.9 °C -19.9 °C 33890.5 hPa Calm   9 km/h 99% 0 mm WeatherDisplay:10.37 W/m2 FEW
07:59 -19.9 °C -20.5 °C 33890.5 hPa Calm     92% 0 mm WeatherDisplay:10.37 W/m2 FEW
08:04 -19.9 °C -19.9 °C 33890.5 hPa Calm     99% 0 mm WeatherDisplay:10.37 W/m2 FEW
08:09 -19.9 °C -19.9 °C 33890.5 hPa Calm     99% 0 mm WeatherDisplay:10.37 W/m2 FEW
08:14 -19.9 °C -20.5 °C 33880.3 hPa Calm     92% 0 mm WeatherDisplay:10.37 W/m2 FEW
08:19 -19.9 °C -20.5 °C 33880.3 hPa Calm     92% 0 mm WeatherDisplay:10.37 W/m2 FEW
08:24 -19.8 °C -20.4 °C 33880.3 hPa Calm     92% 0 mm WeatherDisplay:10.37 W/m2 FEW
08:29 -19.9 °C -20.5 °C 33880.3 hPa NNW 1.8 km/h 6 km/h 92% 0 mm WeatherDisplay:10.37 W/m2 FEW
08:34 -19.8 °C -20.4 °C 33880.3 hPa Calm     92% 0 mm WeatherDisplay:10.37 W/m2 FEW
08:39 -19.8 °C -20.4 °C 33880.3 hPa ENE 5.5 km/h 9 km/h 92% 0 mm WeatherDisplay:10.37 W/m2 FEW
08:44 -19.8 °C -20.4 °C 33880.3 hPa Calm   6 km/h 92% 0 mm WeatherDisplay:10.37 W/m2 FEW
08:49 -19.8 °C -20.4 °C 33880.3 hPa Calm   2.6 km/h 92% 0 mm WeatherDisplay:10.37 W/m2 FEW
08:54 -19.8 °C -20.4 °C 33880.3 hPa NNE 0.8 km/h   92% 0 mm WeatherDisplay:10.37 W/m2 FEW
08:59 -19.8 °C -20.4 °C 33880.3 hPa Calm     92% 0 mm WeatherDisplay:10.37 W/m2 FEW
09:04 -19.8 °C -20.4 °C 33880.3 hPa Calm     92% 0 mm WeatherDisplay:10.37 W/m2 FEW
09:09 -19.8 °C -20.4 °C 33880.3 hPa Calm   3.1 km/h 92% 0 mm WeatherDisplay:10.37 W/m2 FEW
09:14 -19.8 °C -20.4 °C 33880.3 hPa Calm     92% 0 mm WeatherDisplay:10.37 W/m2 FEW
09:19 -19.8 °C -20.4 °C 33880.3 hPa Calm     92% 0 mm WeatherDisplay:10.37 W/m2 FEW
09:24 -19.8 °C -20.4 °C 33880.3 hPa Calm     92% 0 mm WeatherDisplay:10.37 W/m2 FEW
09:29 -19.8 °C -20.4 °C 33880.3 hPa Calm     92% 0 mm WeatherDisplay:10.37 W/m2 FEW
09:34 -19.8 °C -20.4 °C 33880.3 hPa Calm     92% 0 mm WeatherDisplay:10.37 W/m2 FEW
09:39 -19.8 °C -20.4 °C 33880.3 hPa Calm     92% 0 mm WeatherDisplay:10.37 W/m2 FEW
09:44 -19.8 °C -20.5 °C 33880.3 hPa Calm     91% 0 mm WeatherDisplay:10.37 W/m2 FEW
09:49 -19.8 °C -20.5 °C 33880.3 hPa Calm     91% 0 mm WeatherDisplay:10.37 W/m2 FEW
09:54 -19.8 °C -20.5 °C 33880.3 hPa Calm     91% 0 mm WeatherDisplay:10.37 W/m2 FEW
09:59 -19.8 °C -20.5 °C 33890.5 hPa Calm     91% 0 mm WeatherDisplay:10.37 W/m2 FEW
10:04 -19.8 °C -20.5 °C 33890.5 hPa Calm     91% 0 mm WeatherDisplay:10.37 W/m2 FEW
10:09 -19.8 °C -20.4 °C 33890.5 hPa Calm     91% 0 mm WeatherDisplay:10.37 W/m2 FEW
10:14 -19.8 °C -20.4 °C 33890.5 hPa Calm     92% 0 mm WeatherDisplay:10.37 W/m2 FEW
10:19 -19.7 °C -20.3 °C 33890.5 hPa Calm     92% 0 mm WeatherDisplay:10.37 W/m2 FEW
10:24 -19.7 °C -20.3 °C 33890.5 hPa Calm     92% 0 mm WeatherDisplay:10.37 W/m2 FEW
10:29 -19.7 °C -20.3 °C 33890.5 hPa Calm     92% 0 mm WeatherDisplay:10.37 W/m2 FEW
10:34 -19.7 °C -20.4 °C 33880.3 hPa Calm     91% 0 mm WeatherDisplay:10.37 W/m2 FEW
10:39 -19.7 °C -20.4 °C 33880.3 hPa Calm     91% 0 mm WeatherDisplay:10.37 W/m2 FEW
10:44 -19.7 °C -20.4 °C 33880.3 hPa Calm     91% 0 mm WeatherDisplay:10.37 W/m2 FEW
10:49 -19.7 °C -20.4 °C 33880.3 hPa Calm     91% 0 mm WeatherDisplay:10.37 W/m2 FEW
10:54 -19.7 °C -20.4 °C 33880.3 hPa Calm     91% 0 mm WeatherDisplay:10.37 W/m2 FEW
10:59 -19.7 °C -20.4 °C 33880.3 hPa Calm     91% 0 mm WeatherDisplay:10.37 W/m2 FEW
11:04 -19.7 °C -20.4 °C 33880.3 hPa Calm     91% 0 mm WeatherDisplay:10.37 W/m2 FEW
11:09 -19.7 °C -20.4 °C 33880.3 hPa Calm     91% 0 mm WeatherDisplay:10.37 W/m2 FEW
11:14 -19.7 °C -20.4 °C 33880.3 hPa Calm     91% 0 mm WeatherDisplay:10.37 W/m2 FEW
11:19 -19.7 °C -20.4 °C 33880.3 hPa Calm     91% 0 mm WeatherDisplay:10.37 W/m2 FEW
11:24 -19.7 °C -20.4 °C 33880.3 hPa Calm     91% 0 mm WeatherDisplay:10.37 W/m2 FEW
11:29 -19.7 °C -20.4 °C 33880.3 hPa Calm     91% 0 mm WeatherDisplay:10.37 W/m2 FEW
11:34 -19.7 °C -20.4 °C 33880.3 hPa North 0.8 km/h 6 km/h 91% 0 mm WeatherDisplay:10.37 W/m2 FEW
11:39 -19.7 °C -20.4 °C 33880.3 hPa Calm     91% 0 mm WeatherDisplay:10.37 W/m2 FEW
11:44 -19.7 °C -20.4 °C 33880.3 hPa Calm     91% 0 mm WeatherDisplay:10.37 W/m2 FEW
11:49 -19.6 °C -20.3 °C 33880.3 hPa North 3.4 km/h 6 km/h 91% 0 mm WeatherDisplay:10.37 W/m2 FEW
11:54 -19.7 °C -20.4 °C 33880.3 hPa North 7.2 km/h 9 km/h 91% 0 mm WeatherDisplay:10.37 W/m2 FEW
11:59 -19.7 °C -20.4 °C 33880.3 hPa Calm     90% 0 mm WeatherDisplay:10.37 W/m2 FEW
12:04 -19.6 °C -20.3 °C 33880.3 hPa Calm     91% 0 mm WeatherDisplay:10.37 W/m2 FEW
12:09 -19.6 °C -20.4 °C 33880.3 hPa North 4.3 km/h 10.3 km/h 90% 0 mm WeatherDisplay:10.37 W/m2 FEW
12:14 -19.6 °C -20.4 °C 33880.3 hPa Calm     90% 0 mm WeatherDisplay:10.37 W/m2 FEW
12:20 -19.6 °C -20.4 °C 33880.3 hPa Calm     90% 0 mm WeatherDisplay:10.37 W/m2 FEW
12:25 -19.6 °C -20.3 °C 33880.3 hPa Calm     90% 0 mm WeatherDisplay:10.37 W/m2 FEW
12:30 -19.6 °C -20.3 °C 33880.3 hPa Calm     90% 0 mm WeatherDisplay:10.37 W/m2 FEW
12:35 -19.6 °C -20.3 °C 33880.3 hPa Calm     90% 0 mm WeatherDisplay:10.37 W/m2 FEW
12:40 -19.6 °C -20.3 °C 33880.3 hPa North 0.8 km/h 6 km/h 90% 0 mm WeatherDisplay:10.37 W/m2 FEW
12:45 -19.6 °C -20.3 °C 33880.3 hPa Calm     90% 0 mm WeatherDisplay:10.37 W/m2 FEW
12:50 -19.6 °C -20.3 °C 33880.3 hPa North 2.3 km/h 9 km/h 90% 0 mm WeatherDisplay:10.37 W/m2 FEW
12:55 -19.6 °C -20.3 °C 33880.3 hPa Calm     90% 0 mm WeatherDisplay:10.37 W/m2 FEW
13:00 -19.6 °C -20.3 °C 33880.3 hPa Calm     90% 0 mm WeatherDisplay:10.37 W/m2 FEW
13:07 -19.6 °C -20.3 °C 33880.3 hPa Calm     90% 0 mm WeatherDisplay:10.37 W/m2 FEW
13:12 -19.5 °C -20.2 °C 33880.3 hPa North 3.4 km/h 3.4 km/h 91% 0 mm WeatherDisplay:10.37 W/m2 FEW
13:17 -19.6 °C -20.3 °C 33880.3 hPa Calm     90% 0 mm WeatherDisplay:10.37 W/m2 FEW
13:22 -19.6 °C -20.2 °C 33880.3 hPa Calm     91% 0 mm WeatherDisplay:10.37 W/m2 FEW
13:27 -19.6 °C -20.2 °C 33880.3 hPa Calm     91% 0 mm WeatherDisplay:10.37 W/m2 FEW
13:32 -19.6 °C -20.2 °C 33866.8 hPa Calm     91% 0 mm WeatherDisplay:10.37 W/m2 FEW
13:37 -19.6 °C -20.2 °C 33866.8 hPa Calm     91% 0 mm WeatherDisplay:10.37 W/m2 FEW
13:42 -19.6 °C -20.2 °C 33880.3 hPa Calm   3.1 km/h 91% 0 mm WeatherDisplay:10.37 W/m2 FEW
13:47 -19.6 °C -20.2 °C 33880.3 hPa Calm     91% 0 mm WeatherDisplay:10.37 W/m2 FEW
13:52 -19.6 °C -20.2 °C 33880.3 hPa Calm     91% 0 mm WeatherDisplay:10.37 W/m2 FEW
13:57 -19.6 °C -20.3 °C 33880.3 hPa Calm     91% 0 mm WeatherDisplay:10.37 W/m2 FEW
14:02 -19.6 °C -20.3 °C 33880.3 hPa Calm     91% 0 mm WeatherDisplay:10.37 W/m2 FEW
14:07 -19.6 °C -20.3 °C 33880.3 hPa Calm     91% 0 mm WeatherDisplay:10.37 W/m2 FEW
14:12 -19.6 °C -20.3 °C 33880.3 hPa Calm     91% 0 mm WeatherDisplay:10.37 W/m2 FEW
14:17 -19.6 °C -20.2 °C 33880.3 hPa Calm     92% 0 mm WeatherDisplay:10.37 W/m2 FEW
14:22 -19.6 °C -20.2 °C 33880.3 hPa Calm     92% 0 mm WeatherDisplay:10.37 W/m2 FEW
14:27 -19.6 °C -20.2 °C 33880.3 hPa Calm     92% 0 mm WeatherDisplay:10.37 W/m2 FEW
14:32 -19.6 °C -20.2 °C 33880.3 hPa Calm     92% 0 mm WeatherDisplay:10.37 W/m2 FEW
14:37 -19.6 °C -20.2 °C 33880.3 hPa Calm     92% 0 mm WeatherDisplay:10.37 W/m2 FEW
14:42 -19.6 °C -20.2 °C 33880.3 hPa Calm     92% 0 mm WeatherDisplay:10.37 W/m2 FEW
14:47 -19.6 °C -20.2 °C 33880.3 hPa Calm     92% 0 mm WeatherDisplay:10.37 W/m2 FEW
14:52 -19.6 °C -20.2 °C 33880.3 hPa Calm     92% 0 mm WeatherDisplay:10.37 W/m2 FEW
14:57 -19.6 °C -20.2 °C 33880.3 hPa Calm     92% 0 mm WeatherDisplay:10.37 W/m2 FEW
15:02 -19.6 °C -20.2 °C 33880.3 hPa Calm     92% 0 mm WeatherDisplay:10.37 W/m2 FEW
15:07 -19.6 °C -20.2 °C 33880.3 hPa Calm     92% 0 mm WeatherDisplay:10.37 W/m2 FEW
15:12 -19.6 °C -20.2 °C 33880.3 hPa Calm     92% 0 mm WeatherDisplay:10.37 W/m2 FEW
15:17 -19.6 °C -20.2 °C 33880.3 hPa Calm     92% 0 mm WeatherDisplay:10.37 W/m2 FEW
15:22 -19.6 °C -20.2 °C 33880.3 hPa Calm     92% 0 mm WeatherDisplay:10.37 W/m2 FEW
15:27 -19.6 °C -20.2 °C 33880.3 hPa Calm     92% 0 mm WeatherDisplay:10.37 W/m2 FEW
15:32 -19.6 °C -20.2 °C 33880.3 hPa North 0.3 km/h   92% 0 mm WeatherDisplay:10.37 W/m2 FEW
15:37 -19.6 °C -20.2 °C 33880.3 hPa Calm     92% 7.62 mm WeatherDisplay:10.37 W/m2 RA
15:42 -19.6 °C -20.2 °C 33880.3 hPa Calm     92% 7.62 mm WeatherDisplay:10.37 W/m2 RA
15:47 -19.6 °C -20.2 °C 33880.3 hPa Calm     92% 7.62 mm WeatherDisplay:10.37 W/m2 FEW
15:52 -19.6 °C -20.2 °C 33880.3 hPa Calm     92% 7.62 mm WeatherDisplay:10.37 W/m2 FEW
15:57 -19.6 °C -20.2 °C 33880.3 hPa Calm     92% 7.62 mm WeatherDisplay:10.37 W/m2 FEW
16:02 -19.6 °C -20.2 °C 33880.3 hPa Calm     92% 7.62 mm WeatherDisplay:10.37 W/m2 FEW
16:07 -19.6 °C -20.2 °C 33880.3 hPa Calm     92% 7.62 mm WeatherDisplay:10.37 W/m2 FEW
16:12 -19.6 °C -20.2 °C 33880.3 hPa Calm     92% 7.62 mm WeatherDisplay:10.37 W/m2 FEW
16:17 -19.6 °C -20.2 °C 33880.3 hPa Calm     92% 7.62 mm WeatherDisplay:10.37 W/m2 FEW
16:22 -19.6 °C -20.2 °C 33880.3 hPa Calm     92% 7.62 mm WeatherDisplay:10.37 W/m2 FEW
16:27 -19.6 °C -20.2 °C 33880.3 hPa Calm     92% 7.62 mm WeatherDisplay:10.37 W/m2 FEW
16:32 -19.6 °C -20.2 °C 33880.3 hPa Calm     92% 12.7 mm WeatherDisplay:10.37 W/m2 RA
16:37 -19.6 °C -20.2 °C 33880.3 hPa Calm     92% 7.62 mm WeatherDisplay:10.37 W/m2 RA
16:42 -19.6 °C -20.2 °C 33880.3 hPa Calm     92% 7.62 mm WeatherDisplay:10.37 W/m2 FEW
16:47 -19.6 °C -20.2 °C 33880.3 hPa Calm     92% 7.62 mm WeatherDisplay:10.37 W/m2 FEW
16:52 -19.6 °C -20.2 °C 33880.3 hPa Calm     92% 7.62 mm WeatherDisplay:10.37 W/m2 FEW
16:57 -19.6 °C -20.2 °C 33880.3 hPa Calm     92% 7.62 mm WeatherDisplay:10.37 W/m2 FEW
17:02 -19.6 °C -20.2 °C 33880.3 hPa Calm     92% 7.62 mm WeatherDisplay:10.37 W/m2 FEW
17:07 -19.7 °C -20.3 °C 33880.3 hPa Calm     92% 7.62 mm WeatherDisplay:10.37 W/m2 FEW
17:12 -19.7 °C -20.3 °C 33880.3 hPa Calm     92% 7.62 mm WeatherDisplay:10.37 W/m2 FEW
17:17 -19.7 °C -20.3 °C 33880.3 hPa Calm     92% 7.62 mm WeatherDisplay:10.37 W/m2 FEW
17:22 -19.7 °C -20.3 °C 33866.8 hPa Calm     92% 7.62 mm WeatherDisplay:10.37 W/m2 FEW
17:27 -19.6 °C -20.2 °C 33866.8 hPa Calm     92% 7.62 mm WeatherDisplay:10.37 W/m2 FEW
17:32 -19.6 °C -20.2 °C 33866.8 hPa Calm     92% 0 mm WeatherDisplay:10.37 W/m2 FEW
17:37 -19.6 °C -20.2 °C 33880.3 hPa Calm     92% 0 mm WeatherDisplay:10.37 W/m2 FEW
17:42 -19.6 °C -20.2 °C 33880.3 hPa Calm     92% 0 mm WeatherDisplay:10.37 W/m2 FEW
17:47 -19.6 °C -20.2 °C 33880.3 hPa Calm     92% 0 mm WeatherDisplay:10.37 W/m2 FEW
17:52 -19.6 °C -20.2 °C 33880.3 hPa Calm     92% 0 mm WeatherDisplay:10.37 W/m2 FEW
17:57 -19.7 °C -20.3 °C 33880.3 hPa Calm     92% 0 mm WeatherDisplay:10.37 W/m2 FEW
18:02 -19.6 °C -20.2 °C 33880.3 hPa Calm     92% 0 mm WeatherDisplay:10.37 W/m2 FEW
18:07 -19.7 °C -20.3 °C 33880.3 hPa Calm     92% 0 mm WeatherDisplay:10.37 W/m2 FEW
18:12 -19.7 °C -20.3 °C 33880.3 hPa Calm     92% 0 mm WeatherDisplay:10.37 W/m2 FEW
18:17 -19.7 °C -20.3 °C 33880.3 hPa Calm     92% 0 mm WeatherDisplay:10.37 W/m2 FEW
18:22 -19.6 °C -20.2 °C 33880.3 hPa Calm     92% 0 mm WeatherDisplay:10.37 W/m2 FEW
18:27 -19.6 °C -20.2 °C 33880.3 hPa Calm     92% 0 mm WeatherDisplay:10.37 W/m2 FEW
18:32 -19.6 °C -20.2 °C 33880.3 hPa Calm     92% 7.62 mm WeatherDisplay:10.37 W/m2 RA
18:37 -19.6 °C -20.1 °C 33880.3 hPa Calm     93% 7.62 mm WeatherDisplay:10.37 W/m2 RA
18:42 -19.6 °C -20.2 °C 33880.3 hPa Calm     92% 7.62 mm WeatherDisplay:10.37 W/m2 FEW
18:47 -19.6 °C -20.2 °C 33880.3 hPa ENE 3.7 km/h 6 km/h 92% 7.62 mm WeatherDisplay:10.37 W/m2 FEW
18:52 -19.6 °C -20.2 °C 33880.3 hPa NE 3.4 km/h 6 km/h 92% 7.62 mm WeatherDisplay:10.37 W/m2 FEW
18:57 -19.7 °C -20.3 °C 33880.3 hPa ENE 3.1 km/h 6 km/h 92% 7.62 mm WeatherDisplay:10.37 W/m2 FEW
19:02 -19.7 °C -20.3 °C 33880.3 hPa ENE 5.1 km/h 9 km/h 92% 7.62 mm WeatherDisplay:10.37 W/m2 FEW
19:07 -19.7 °C -20.3 °C 33880.3 hPa ENE 3.1 km/h 6 km/h 92% 7.62 mm WeatherDisplay:10.37 W/m2 FEW
19:12 -19.8 °C -20.4 °C 33890.5 hPa ENE 2.1 km/h 9 km/h 92% 7.62 mm WeatherDisplay:10.37 W/m2 FEW
19:17 -19.8 °C -20.4 °C 33890.5 hPa Calm   6 km/h 92% 7.62 mm WeatherDisplay:10.37 W/m2 FEW
19:22 -19.8 °C -20.4 °C 33890.5 hPa Calm     92% 7.62 mm WeatherDisplay:10.37 W/m2 FEW
19:27 -19.8 °C -20.4 °C 33890.5 hPa Calm   6 km/h 92% 7.62 mm WeatherDisplay:10.37 W/m2 FEW
19:32 -19.8 °C -20.4 °C 33890.5 hPa ENE 1.6 km/h 6 km/h 92% 0 mm WeatherDisplay:10.37 W/m2 FEW
19:37 -19.8 °C -20.4 °C 33890.5 hPa Calm     92% 0 mm WeatherDisplay:10.37 W/m2 FEW
19:42 -19.8 °C -20.4 °C 33890.5 hPa Calm     92% 0 mm WeatherDisplay:10.37 W/m2 FEW
19:47 -19.8 °C -20.4 °C 33890.5 hPa Calm   6 km/h 92% 0 mm WeatherDisplay:10.37 W/m2 FEW
19:52 -19.8 °C -20.4 °C 33890.5 hPa ENE 2.9 km/h 6 km/h 92% 0 mm WeatherDisplay:10.37 W/m2 FEW
19:57 -19.8 °C -20.4 °C 33900.6 hPa Calm   3.1 km/h 92% 0 mm WeatherDisplay:10.37 W/m2 FEW
20:02 -19.8 °C -20.4 °C 33900.6 hPa ENE 5.1 km/h 7.7 km/h 92% 0 mm WeatherDisplay:10.37 W/m2 FEW
20:07 -19.9 °C -20.5 °C 33900.6 hPa ENE 1.6 km/h 9 km/h 92% 7.62 mm WeatherDisplay:10.37 W/m2 RA
20:12 -19.9 °C -19.9 °C 33900.6 hPa ENE 0.5 km/h 6 km/h 99% 7.62 mm WeatherDisplay:10.37 W/m2 RA
20:17 -19.9 °C -20.5 °C 33900.6 hPa ENE 0.5 km/h   92% 7.62 mm WeatherDisplay:10.37 W/m2 FEW
20:22 -19.9 °C -20.6 °C 33900.6 hPa ENE 4.7 km/h 9 km/h 92% 7.62 mm WeatherDisplay:10.37 W/m2 FEW
20:27 -19.9 °C -20.6 °C 33900.6 hPa NE 3.1 km/h 9 km/h 92% 7.62 mm WeatherDisplay:10.37 W/m2 FEW
20:32 -20.1 °C -20.7 °C 33900.6 hPa ENE 1.3 km/h   92% 7.62 mm WeatherDisplay:10.37 W/m2 FEW
20:37 -20.1 °C -20.7 °C 33900.6 hPa ENE 0.5 km/h 9 km/h 92% 7.62 mm WeatherDisplay:10.37 W/m2 FEW
20:42 -20.1 °C -20.7 °C 33900.6 hPa Calm     92% 7.62 mm WeatherDisplay:10.37 W/m2 FEW
20:47 -20.1 °C -20.7 °C 33900.6 hPa Calm     92% 7.62 mm WeatherDisplay:10.37 W/m2 FEW
20:52 -20.1 °C -20.7 °C 33900.6 hPa Calm     92% 7.62 mm WeatherDisplay:10.37 W/m2 FEW
20:57 -20.1 °C -20.7 °C 33900.6 hPa NE 1 km/h 9 km/h 92% 7.62 mm WeatherDisplay:10.37 W/m2 FEW
21:02 -20.1 °C -20.7 °C 33900.6 hPa NE 5.5 km/h 6 km/h 92% 7.62 mm WeatherDisplay:10.37 W/m2 FEW
21:07 -20.1 °C -20.7 °C 33900.6 hPa ENE 1 km/h 9 km/h 92% 0 mm WeatherDisplay:10.37 W/m2 FEW
21:12 -20.2 °C -20.8 °C 33900.6 hPa ENE 5.5 km/h 6 km/h 92% 0 mm WeatherDisplay:10.37 W/m2 FEW
21:17 -20.2 °C -20.8 °C 33900.6 hPa NE 0.5 km/h 3.1 km/h 92% 7.62 mm WeatherDisplay:10.37 W/m2 RA
21:22 -20.2 °C -20.8 °C 33900.6 hPa ENE 2.3 km/h 9 km/h 92% 7.62 mm WeatherDisplay:10.37 W/m2 RA
21:27 -20.2 °C -20.8 °C 33900.6 hPa ESE 3.1 km/h 9 km/h 92% 7.62 mm WeatherDisplay:10.37 W/m2 FEW
21:32 -20.2 °C -20.8 °C 33900.6 hPa ENE 0.3 km/h 6 km/h 92% 7.62 mm WeatherDisplay:10.37 W/m2 FEW
21:37 -20.2 °C -20.8 °C 33900.6 hPa Calm     92% 7.62 mm WeatherDisplay:10.37 W/m2 FEW
21:42 -20.2 °C -20.8 °C 33914.2 hPa ENE 5.5 km/h 6 km/h 92% 7.62 mm WeatherDisplay:10.37 W/m2 FEW
21:47 -20.2 °C -20.9 °C 33900.6 hPa Calm     92% 7.62 mm WeatherDisplay:10.37 W/m2 FEW
21:52 -20.2 °C -20.9 °C 33900.6 hPa Calm   3.1 km/h 92% 7.62 mm WeatherDisplay:10.37 W/m2 FEW
21:57 -20.3 °C -20.9 °C 33914.2 hPa ENE 2.1 km/h 9 km/h 92% 7.62 mm WeatherDisplay:10.37 W/m2 FEW
22:02 -20.3 °C -20.9 °C 33914.2 hPa ENE 0.8 km/h 6 km/h 92% 7.62 mm WeatherDisplay:10.37 W/m2 FEW
22:07 -20.3 °C -20.9 °C 33914.2 hPa ENE 1 km/h 3.1 km/h 92% 7.62 mm WeatherDisplay:10.37 W/m2 FEW
22:12 -20.3 °C -20.9 °C 33914.2 hPa Calm     92% 12.7 mm WeatherDisplay:10.37 W/m2 RA
22:17 -20.3 °C -20.9 °C 33914.2 hPa Calm     92% 7.62 mm WeatherDisplay:10.37 W/m2 RA
22:22 -20.4 °C -21 °C 33914.2 hPa Calm     92% 7.62 mm WeatherDisplay:10.37 W/m2 FEW
22:27 -20.4 °C -21 °C 33914.2 hPa Calm     92% 7.62 mm WeatherDisplay:10.37 W/m2 FEW
22:32 -20.4 °C -21 °C 33914.2 hPa Calm     92% 7.62 mm WeatherDisplay:10.37 W/m2 FEW
22:37 -20.4 °C -21.1 °C 33914.2 hPa Calm     92% 12.7 mm WeatherDisplay:10.37 W/m2 RA
22:42 -20.4 °C -21.1 °C 33914.2 hPa NE 0.3 km/h 3.1 km/h 92% 12.7 mm WeatherDisplay:10.37 W/m2 RA
22:48 -20.4 °C -21.1 °C 33914.2 hPa Calm     92% 12.7 mm WeatherDisplay:10.37 W/m2 FEW
22:53 -20.5 °C -21.1 °C 33914.2 hPa NE 0.3 km/h 3.1 km/h 92% 12.7 mm WeatherDisplay:10.37 W/m2 FEW
22:58 -20.5 °C -21.2 °C 33924.3 hPa NE 0.8 km/h 3.1 km/h 92% 12.7 mm WeatherDisplay:10.37 W/m2 FEW
23:03 -20.5 °C -21.2 °C 33924.3 hPa Calm     92% 12.7 mm WeatherDisplay:10.37 W/m2 FEW
23:08 -20.6 °C -21.2 °C 33914.2 hPa Calm     92% 12.7 mm WeatherDisplay:10.37 W/m2 RA
23:13 -20.6 °C -21.2 °C 33914.2 hPa Calm     92% 12.7 mm WeatherDisplay:10.37 W/m2 RA
23:18 -20.6 °C -21.2 °C 33924.3 hPa Calm     92% 12.7 mm WeatherDisplay:10.37 W/m2 FEW
23:23 -20.6 °C -21.2 °C 33924.3 hPa Calm     92% 12.7 mm WeatherDisplay:10.37 W/m2 FEW
23:28 -20.6 °C -21.2 °C 33924.3 hPa Calm     92% 12.7 mm WeatherDisplay:10.37 W/m2 FEW
23:33 -20.6 °C -21.2 °C 33924.3 hPa Calm     92% 12.7 mm WeatherDisplay:10.37 W/m2 FEW
23:38 -20.6 °C -21.2 °C 33924.3 hPa Calm     92% 7.62 mm WeatherDisplay:10.37 W/m2 FEW
23:43 -20.6 °C -21.2 °C 33924.3 hPa Calm     92% 7.62 mm WeatherDisplay:10.37 W/m2 FEW
23:48 -20.6 °C -21.2 °C 33924.3 hPa Calm     92% 7.62 mm WeatherDisplay:10.37 W/m2 FEW
23:53 -20.6 °C -21.2 °C 33924.3 hPa Calm     92% 7.62 mm WeatherDisplay:10.37 W/m2 FEW
23:58 -20.6 °C -21.2 °C 33924.3 hPa Calm     92% 12.7 mm WeatherDisplay:10.37 W/m2 RA
Tuulensuunkaari, Veikkola, Suomi
Compliments of Weather Underground - 2.75 mb